Time;durP1;ratioP1;P1;durP2;ratioP2;P2;SDS_P1;SDS_P2;PMS_P1;PMS_P2;Temp;Humidity;BMP_temperature;BMP_pressure;BME280_temperature;BME280_humidity;BME280_pressure;Samples;Min_cycle;Max_cycle;Signal;HPM_P1;HPM_P2
2021/12/24 00:01:23;;;;;;;32.17;15.80;;;;;;;-0.40;62.62;94990.63;5087724;28;20200;-76
2021/12/24 00:03:51;;;;;;;33.73;16.07;;;;;;;-0.39;62.89;94989.69;5087574;28;20197;-76
2021/12/24 00:06:19;;;;;;;28.30;15.63;;;;;;;-0.37;62.70;94975.84;5087814;28;20231;-76
2021/12/24 00:08:47;;;;;;;27.03;14.57;;;;;;;-0.36;62.24;94969.00;5089854;28;20659;-79
2021/12/24 00:11:19;;;;;;;29.47;13.60;;;;;;;-0.46;62.75;94963.94;5094069;28;20201;-78
2021/12/24 00:13:50;;;;;;;23.03;13.37;;;;;;;-0.47;63.04;94977.66;5094801;28;20262;-77
2021/12/24 00:16:23;;;;;;;27.87;13.63;;;;;;;-0.54;62.56;94940.88;5101044;28;20208;-83
2021/12/24 00:18:57;;;;;;;26.60;13.30;;;;;;;-0.43;63.08;94963.66;5087219;28;20236;-77
2021/12/24 00:35:28;;;;;;;32.00;13.53;;;;;;;-0.60;64.60;94972.88;5093943;28;20216;-77
2021/12/24 00:37:56;;;;;;;24.60;12.47;;;;;;;-0.52;63.18;94979.03;5095104;28;20235;-78
2021/12/24 00:40:24;;;;;;;26.83;14.10;;;;;;;-0.49;63.11;94973.66;5091918;28;20211;-77
2021/12/24 00:42:56;;;;;;;28.13;13.70;;;;;;;-0.52;63.44;94972.19;5089552;28;20200;-78
2021/12/24 00:45:25;;;;;;;26.73;13.37;;;;;;;-0.60;63.33;94960.13;5095809;28;20283;-77
2021/12/24 00:47:54;;;;;;;22.73;12.37;;;;;;;-0.47;63.30;94964.09;5090774;28;20594;-77
2021/12/24 00:50:25;;;;;;;29.03;14.00;;;;;;;-0.46;63.02;94952.94;5089836;28;20219;-78
2021/12/24 00:52:57;;;;;;;27.83;14.20;;;;;;;-0.47;62.68;94948.78;5090140;28;20197;-78
2021/12/24 00:55:27;;;;;;;25.97;13.43;;;;;;;-0.54;63.36;94937.53;5089321;28;20209;-78
2021/12/24 00:57:59;;;;;;;26.17;13.13;;;;;;;-0.59;63.88;94932.88;5099848;28;20227;-77
2021/12/24 01:00:29;;;;;;;24.73;13.07;;;;;;;-0.48;63.70;94936.97;5089887;28;20743;-78
2021/12/24 01:03:00;;;;;;;26.53;12.90;;;;;;;-0.44;63.41;94930.63;5091150;28;20205;-77
2021/12/24 01:05:30;;;;;;;23.57;13.47;;;;;;;-0.39;63.44;94939.47;5089874;28;20296;-76
2021/12/24 01:08:01;;;;;;;24.87;13.33;;;;;;;-0.37;63.04;94924.78;5089442;28;20258;-76
2021/12/24 01:10:31;;;;;;;25.77;13.73;;;;;;;-0.23;62.34;94934.50;5089004;28;20211;-77
2021/12/24 01:13:01;;;;;;;24.83;13.53;;;;;;;-0.26;62.24;94932.22;5089908;28;20640;-76
2021/12/24 01:15:31;;;;;;;28.47;13.77;;;;;;;-0.23;62.66;94931.16;5089150;28;20289;-76
2021/12/24 01:18:04;;;;;;;24.23;13.13;;;;;;;-0.12;61.92;94936.06;5089696;28;20719;-77
2021/12/24 01:20:41;;;;;;;21.23;12.73;;;;;;;-0.20;61.65;94934.22;5089373;28;20212;-75
2021/12/24 01:23:29;;;;;;;26.53;13.27;;;;;;;-0.48;62.03;94914.78;5089607;28;20200;-75
2021/12/24 01:26:02;;;;;;;23.73;12.60;;;;;;;-0.89;63.57;94903.34;5083377;28;20200;-75
2021/12/24 01:28:44;;;;;;;26.20;14.00;;;;;;;-0.94;64.10;94909.81;5088256;28;20235;-75
2021/12/24 01:39:42;;;;;;;25.07;13.47;;;;;;;-0.54;63.24;94906.91;5089787;28;20203;-75
2021/12/24 01:44:58;;;;;;;24.77;13.50;;;;;;;-0.46;62.38;94902.69;5084290;28;20199;-75
2021/12/24 01:47:26;;;;;;;37.60;17.47;;;;;;;-0.42;63.05;94904.00;5095450;28;20631;-76
2021/12/24 01:49:55;;;;;;;44.00;20.53;;;;;;;-0.41;63.48;94903.06;5089023;28;20201;-75
2021/12/24 01:52:23;;;;;;;42.63;22.80;;;;;;;-0.35;64.25;94911.91;5089666;28;20197;-75
2021/12/24 01:54:52;;;;;;;48.53;23.43;;;;;;;-0.27;65.19;94900.00;5089043;28;20221;-75
2021/12/24 01:57:20;;;;;;;55.60;25.57;;;;;;;-0.32;65.44;94896.28;5089482;28;20212;-75
2021/12/24 01:59:48;;;;;;;56.07;24.53;;;;;;;-0.27;65.79;94897.47;5088979;28;20208;-75
2021/12/24 02:02:19;;;;;;;49.83;24.67;;;;;;;-0.29;66.14;94886.56;5088893;28;20204;-75
2021/12/24 02:04:49;;;;;;;54.23;25.67;;;;;;;-0.35;66.37;94876.97;5089111;28;20199;-76
2021/12/24 02:07:18;;;;;;;61.67;25.80;;;;;;;-0.42;66.59;94881.03;5094302;28;20254;-76
2021/12/24 02:09:46;;;;;;;59.90;26.17;;;;;;;-0.37;67.13;94867.81;5087967;28;20211;-76
2021/12/24 02:12:15;;;;;;;53.73;26.20;;;;;;;-0.38;66.48;94871.34;5088275;28;20205;-76
2021/12/24 02:14:49;;;;;;;66.63;28.20;;;;;;;-0.42;66.71;94870.03;5088430;28;20232;-76
2021/12/24 02:28:28;;;;;;;68.83;31.30;;;;;;;-1.07;72.41;94848.19;5086080;28;20235;-76
2021/12/24 02:30:57;;;;;;;69.43;31.67;;;;;;;-1.33;74.19;94840.41;5084733;28;20215;-76
2021/12/24 02:33:25;;;;;;;64.33;30.50;;;;;;;-1.63;76.94;94828.72;5088974;28;20204;-75
2021/12/24 02:35:57;;;;;;;78.93;32.47;;;;;;;-1.58;77.94;94823.97;5089136;28;20734;-75
2021/12/24 02:38:27;;;;;;;71.73;30.77;;;;;;;-1.48;77.25;94816.31;5087533;28;20208;-75
2021/12/24 02:40:55;;;;;;;64.20;31.03;;;;;;;-1.32;76.75;94819.03;5088985;28;20232;-75
2021/12/24 02:43:25;;;;;;;70.73;28.97;;;;;;;-1.22;75.27;94807.06;5086377;28;20212;-75
2021/12/24 02:45:56;;;;;;;55.83;26.43;;;;;;;-1.04;74.04;94807.09;5088493;28;20208;-77
2021/12/24 02:53:59;;;;;;;57.87;24.37;;;;;;;-0.86;72.97;94792.59;5083197;28;20199;-75
2021/12/24 02:56:30;;;;;;;60.30;27.50;;;;;;;-0.78;72.22;94790.91;5088608;28;20212;-74
2021/12/24 02:59:02;;;;;;;47.50;22.53;;;;;;;-0.73;70.93;94782.84;5085182;28;20701;-74
2021/12/24 03:01:33;;;;;;;42.50;21.00;;;;;;;-0.73;70.28;94790.50;5088998;28;20575;-75
2021/12/24 03:04:02;;;;;;;45.67;21.13;;;;;;;-0.75;70.38;94792.41;5088511;28;20201;-74
2021/12/24 03:06:34;;;;;;;40.57;21.43;;;;;;;-0.75;70.66;94797.50;5087216;28;20204;-76
2021/12/24 03:09:05;;;;;;;47.17;22.50;;;;;;;-0.69;69.97;94791.78;5087950;28;20291;-75
2021/12/24 03:11:34;;;;;;;52.50;23.33;;;;;;;-0.62;70.27;94793.63;5088501;28;20298;-74
2021/12/24 03:14:03;;;;;;;47.33;21.33;;;;;;;-0.64;70.56;94792.19;5088151;28;20668;-75
2021/12/24 03:16:31;;;;;;;42.30;21.63;;;;;;;-0.68;70.31;94750.84;5089103;28;20225;-76
2021/12/24 03:19:02;;;;;;;45.80;21.40;;;;;;;-0.62;70.09;94777.50;5092517;28;20728;-75
2021/12/24 03:21:37;;;;;;;42.83;21.20;;;;;;;-0.70;70.11;94787.66;5088825;28;20575;-75
2021/12/24 03:26:51;;;;;;;35.60;19.33;;;;;;;-0.76;69.06;94780.59;5084811;28;20235;-75
2021/12/24 03:29:20;;;;;;;35.77;18.87;;;;;;;-0.83;69.44;94790.56;5087326;28;20211;-75
2021/12/24 03:31:49;;;;;;;38.03;19.67;;;;;;;-0.94;70.15;94767.84;5087167;28;20209;-76
2021/12/24 03:34:19;;;;;;;46.73;20.40;;;;;;;-0.77;70.43;94776.41;5087410;28;20196;-76
2021/12/24 03:36:50;;;;;;;45.43;21.37;;;;;;;-1.05;71.21;94780.00;5091412;28;20192;-76
2021/12/24 03:39:19;;;;;;;45.90;22.63;;;;;;;-1.44;73.90;94770.00;5090369;28;20208;-75
2021/12/24 03:41:48;;;;;;;67.30;29.07;;;;;;;-1.79;77.55;94783.44;5090950;28;20231;-76
2021/12/24 03:44:18;;;;;;;87.23;36.83;;;;;;;-1.98;79.53;94758.06;5090620;28;20759;-76
2021/12/24 03:46:54;;;;;;;77.30;33.57;;;;;;;-1.75;85.28;94761.88;5089394;28;21011;-75
2021/12/24 03:49:33;;;;;;;75.33;31.00;;;;;;;-1.55;82.62;94762.56;5092212;28;20211;-76
2021/12/24 03:52:17;;;;;;;84.33;35.73;;;;;;;-1.46;81.66;94763.47;5087056;28;20214;-75
2021/12/24 03:54:58;;;;;;;91.03;39.17;;;;;;;-1.36;79.76;94762.50;5091888;28;20208;-76
2021/12/24 03:57:28;;;;;;;97.10;40.83;;;;;;;-1.26;79.38;94763.22;5092200;28;20200;-75
2021/12/24 03:59:57;;;;;;;93.03;40.57;;;;;;;-1.17;79.18;94749.59;5092077;28;20196;-75
2021/12/24 04:02:25;;;;;;;91.17;40.07;;;;;;;-1.18;78.63;94744.63;5097909;28;20219;-76
2021/12/24 04:04:54;;;;;;;100.80;38.63;;;;;;;-1.11;78.47;94745.69;5090068;28;20200;-75
2021/12/24 04:07:25;;;;;;;82.33;34.87;;;;;;;-1.04;76.92;94751.00;5091605;28;20694;-76
2021/12/24 04:10:01;;;;;;;76.00;32.07;;;;;;;-0.97;76.17;94749.47;5089380;28;20201;-76
2021/12/24 04:12:30;;;;;;;66.57;29.00;;;;;;;-1.01;76.19;94754.03;5090978;28;20346;-76
2021/12/24 04:14:59;;;;;;;57.23;27.17;;;;;;;-0.93;75.83;94743.94;5091870;28;20223;-77
2021/12/24 04:17:31;;;;;;;60.77;27.53;;;;;;;-0.88;75.35;94743.50;5092435;28;20204;-76
2021/12/24 04:25:42;;;;;;;48.13;24.13;;;;;;;-0.85;74.70;94763.59;5091594;28;20195;-76
2021/12/24 04:28:10;;;;;;;55.20;25.97;;;;;;;-0.83;74.84;94754.03;5095387;28;20229;-75
2021/12/24 04:30:44;;;;;;;69.57;30.93;;;;;;;-0.78;73.94;94757.00;5091823;28;20207;-76
2021/12/24 04:33:19;;;;;;;79.17;33.03;;;;;;;-0.83;73.82;94749.75;5088179;28;20200;-75
2021/12/24 04:35:58;;;;;;;93.17;38.20;;;;;;;-0.79;73.74;94750.28;5090904;28;20705;-76
2021/12/24 04:38:46;;;;;;;84.70;35.73;;;;;;;-0.90;73.90;94745.41;5090155;28;20683;-74
2021/12/24 04:52:49;;;;;;;105.67;43.20;;;;;;;-1.89;82.86;94761.53;5076302;27;20699;-76
2021/12/24 05:03:36;;;;;;;97.97;41.60;;;;;;;-1.37;80.25;94763.41;5090321;28;20299;-77
2021/12/24 05:06:13;;;;;;;100.27;43.00;;;;;;;-1.37;79.98;94754.97;5091100;28;20232;-77
2021/12/24 05:08:48;;;;;;;105.03;43.33;;;;;;;-1.20;79.83;94762.66;5089705;28;20204;-77
2021/12/24 05:11:18;;;;;;;110.03;45.13;;;;;;;-1.14;79.09;94751.06;5095186;28;20234;-77
2021/12/24 05:13:47;;;;;;;104.17;45.43;;;;;;;-1.10;78.79;94749.84;5092154;28;20298;-76
2021/12/24 05:16:24;;;;;;;112.13;46.13;;;;;;;-1.03;78.02;94767.88;5090423;28;20229;-77
2021/12/24 05:21:32;;;;;;;115.57;49.63;;;;;;;-1.03;77.80;94766.16;5092379;28;20208;-76
2021/12/24 05:21:56;;;;;;;142.93;57.23;;;;;;;-1.10;77.59;94767.69;5089135;28;21162;-76
2021/12/24 05:24:29;;;;;;;129.33;56.30;;;;;;;-1.03;77.11;94757.69;5089938;28;20212;-76
2021/12/24 05:27:01;;;;;;;132.50;56.87;;;;;;;-1.01;77.22;94766.03;5092564;28;20251;-76
2021/12/24 05:29:30;;;;;;;138.33;57.97;;;;;;;-1.07;77.47;94769.16;5089508;28;20193;-77
2021/12/24 05:31:58;;;;;;;148.87;60.10;;;;;;;-1.05;77.84;94759.59;5090785;28;20201;-76
2021/12/24 05:34:26;;;;;;;140.57;58.47;;;;;;;-1.07;77.99;94759.75;5089794;28;20248;-78
2021/12/24 05:36:54;;;;;;;129.10;55.37;;;;;;;-1.03;78.08;94771.25;5091815;28;20227;-77
2021/12/24 05:39:24;;;;;;;115.97;51.87;;;;;;;-1.05;78.19;94759.59;5094032;28;20289;-77
2021/12/24 05:41:52;;;;;;;123.47;52.87;;;;;;;-1.03;78.46;94767.88;5089393;28;20211;-76
2021/12/24 05:44:22;;;;;;;118.33;51.37;;;;;;;-1.05;78.70;94734.91;5089489;28;20670;-77
2021/12/24 05:46:50;;;;;;;120.00;50.40;;;;;;;-1.11;78.64;94755.88;5092366;28;20643;-78
2021/12/24 05:49:18;;;;;;;112.43;48.53;;;;;;;-1.39;79.46;94750.03;5091459;28;20201;-77
2021/12/24 05:51:48;;;;;;;107.50;45.90;;;;;;;-1.67;80.86;94705.13;5092555;28;20204;-77
2021/12/24 05:54:18;;;;;;;124.80;48.90;;;;;;;-1.93;84.49;94732.19;5091100;28;20237;-77
2021/12/24 05:56:47;;;;;;;116.13;48.10;;;;;;;-2.00;85.73;94723.50;5089736;28;20232;-77
2021/12/24 05:59:15;;;;;;;127.10;50.07;;;;;;;-1.91;86.42;94709.94;5090729;28;20197;-76
2021/12/24 06:01:45;;;;;;;122.40;49.27;;;;;;;-1.82;85.76;94719.28;5094527;28;20201;-77
2021/12/24 06:04:12;;;;;;;130.53;52.73;;;;;;;-1.70;84.96;94725.00;5090525;28;20205;-77
2021/12/24 06:06:42;;;;;;;160.80;68.93;;;;;;;-1.65;84.73;94703.25;5090221;28;20620;-76
2021/12/24 06:09:09;;;;;;;157.80;68.93;;;;;;;-1.58;83.82;94714.44;5090323;28;20212;-76
2021/12/24 06:11:39;;;;;;;192.97;83.60;;;;;;;-1.52;84.13;94729.16;5088892;28;20196;-75
2021/12/24 06:14:11;;;;;;;213.00;88.47;;;;;;;-1.39;83.94;94732.19;5085760;28;20212;-76
2021/12/24 06:16:47;;;;;;;198.13;85.47;;;;;;;-1.31;83.18;94714.44;5086916;28;21058;-75
2021/12/24 06:19:17;;;;;;;149.60;61.30;;;;;;;-1.37;82.74;94732.03;5087199;28;20211;-76
2021/12/24 06:21:45;;;;;;;109.73;48.27;;;;;;;-1.39;82.43;94719.44;5090340;28;20201;-75
2021/12/24 06:24:13;;;;;;;88.63;40.67;;;;;;;-1.28;82.07;94741.38;5088589;28;20207;-75
2021/12/24 06:26:42;;;;;;;100.87;44.17;;;;;;;-1.24;81.35;94724.84;5087862;28;20197;-75
2021/12/24 06:29:12;;;;;;;89.30;41.33;;;;;;;-1.12;80.65;94759.38;5087206;28;20200;-75
2021/12/24 06:31:41;;;;;;;95.70;45.37;;;;;;;-1.01;80.46;94750.72;5087701;28;20211;-75
2021/12/24 06:34:09;;;;;;;88.00;41.20;;;;;;;-0.92;79.67;94755.72;5088415;28;20250;-76
2021/12/24 06:36:42;;;;;;;78.13;34.13;;;;;;;-0.84;79.22;94760.94;5088120;28;20223;-76
2021/12/24 06:39:12;;;;;;;65.27;31.50;;;;;;;-0.75;78.48;94782.97;5088563;28;20228;-76
2021/12/24 06:41:42;;;;;;;63.70;28.10;;;;;;;-0.65;77.69;94773.50;5087182;28;20385;-74
2021/12/24 06:44:12;;;;;;;60.60;28.50;;;;;;;-0.64;77.77;94780.22;5088042;28;20204;-75
2021/12/24 06:46:41;;;;;;;76.70;34.80;;;;;;;-0.67;77.38;94764.41;5096092;28;20214;-75
2021/12/24 06:49:10;;;;;;;61.83;31.30;;;;;;;-0.87;78.07;94784.16;5088513;28;20196;-75
2021/12/24 06:51:40;;;;;;;71.20;33.33;;;;;;;-1.21;79.34;94748.28;5086433;28;20259;-75
2021/12/24 06:54:10;;;;;;;69.33;33.67;;;;;;;-1.42;82.78;94740.13;5086492;28;20197;-76
2021/12/24 06:56:39;;;;;;;79.13;33.03;;;;;;;-1.36;83.32;94757.38;5090275;28;20387;-76
2021/12/24 06:59:09;;;;;;;65.40;30.67;;;;;;;-1.25;83.82;94753.81;5088520;28;20212;-76
2021/12/24 07:01:36;;;;;;;73.00;30.33;;;;;;;-1.08;84.40;94759.88;5087898;28;20927;-77
2021/12/24 07:04:05;;;;;;;58.70;28.77;;;;;;;-0.85;82.37;94763.59;5087262;28;20649;-78
2021/12/24 07:06:33;;;;;;;53.57;26.33;;;;;;;-0.72;79.18;94758.91;5090868;28;20196;-76
2021/12/24 07:09:03;;;;;;;64.00;26.80;;;;;;;-0.66;78.60;94745.59;5090035;28;20235;-77
2021/12/24 07:11:32;;;;;;;51.77;26.20;;;;;;;-0.61;78.65;94768.94;5088860;28;20207;-77
2021/12/24 07:14:00;;;;;;;52.17;24.47;;;;;;;-0.45;76.59;94758.03;5091012;28;20648;-75
2021/12/24 07:16:28;;;;;;;52.87;26.77;;;;;;;-0.41;76.42;94746.59;5087692;28;20319;-77
2021/12/24 07:18:57;;;;;;;53.90;26.20;;;;;;;-0.31;76.39;94755.75;5087257;28;20204;-76
2021/12/24 07:21:25;;;;;;;49.43;25.30;;;;;;;-0.25;74.68;94742.38;5090461;28;20193;-76
2021/12/24 07:23:54;;;;;;;54.00;25.03;;;;;;;-0.28;74.62;94750.34;5086643;28;20201;-76
2021/12/24 07:26:23;;;;;;;55.40;25.33;;;;;;;-0.34;74.75;94743.28;5086745;28;20197;-76
2021/12/24 07:28:51;;;;;;;52.40;24.10;;;;;;;-0.13;74.01;94748.03;5085365;28;20224;-76
2021/12/24 07:31:19;;;;;;;48.63;23.83;;;;;;;-0.02;73.52;94755.44;5087534;28;20197;-76
2021/12/24 07:33:46;;;;;;;51.73;23.63;;;;;;;0.06;73.16;94754.69;5086996;28;20279;-77
2021/12/24 07:36:15;;;;;;;58.27;22.93;;;;;;;0.10;73.30;94748.31;5086053;28;20630;-77
2021/12/24 07:38:44;;;;;;;49.93;22.23;;;;;;;0.19;71.45;94743.09;5086535;28;20200;-77
2021/12/24 07:41:15;;;;;;;47.80;23.20;;;;;;;0.20;71.32;94741.34;5086117;28;20292;-76
2021/12/24 07:43:45;;;;;;;45.27;22.53;;;;;;;0.17;70.18;94739.09;5086950;28;20192;-76
2021/12/24 07:46:13;;;;;;;48.17;22.33;;;;;;;0.16;70.96;94740.84;5087946;28;20317;-77
2021/12/24 07:48:49;;;;;;;45.77;21.97;;;;;;;0.27;70.90;94752.56;5085812;28;20193;-78
2021/12/24 07:54:03;;;;;;;48.33;22.03;;;;;;;0.27;70.18;94765.31;5086827;28;20948;-83
2021/12/24 07:56:32;;;;;;;44.83;22.23;;;;;;;0.06;71.19;94737.59;5103520;28;20219;-82
2021/12/24 07:59:02;;;;;;;49.83;22.33;;;;;;;0.03;71.47;94758.31;5090104;28;20295;-78
2021/12/24 08:01:30;;;;;;;40.37;19.77;;;;;;;0.12;71.69;94749.75;5090119;28;20193;-80
2021/12/24 08:03:58;;;;;;;47.40;21.00;;;;;;;0.29;70.32;94750.66;5091405;28;20268;-78
2021/12/24 08:06:27;;;;;;;44.87;21.50;;;;;;;0.45;68.49;94737.94;5088050;28;20551;-79
2021/12/24 08:08:56;;;;;;;49.53;22.63;;;;;;;0.60;68.31;94748.38;5093645;28;20850;-78
2021/12/24 08:11:24;;;;;;;45.23;21.53;;;;;;;0.71;67.21;94741.22;5092523;28;20204;-78
2021/12/24 08:13:52;;;;;;;53.10;22.53;;;;;;;0.75;66.78;94762.19;5090443;28;20203;-77
2021/12/24 08:16:23;;;;;;;52.67;20.97;;;;;;;0.80;66.44;94747.16;5094339;28;20279;-78
2021/12/24 08:18:51;;;;;;;41.20;20.60;;;;;;;0.79;65.99;94750.66;5087926;28;20194;-78
2021/12/24 08:21:20;;;;;;;50.63;19.17;;;;;;;0.84;66.16;94744.13;5088792;28;20204;-78
2021/12/24 08:23:50;;;;;;;44.53;19.37;;;;;;;0.85;64.98;94727.03;5087532;28;20247;-76
2021/12/24 08:26:21;;;;;;;35.93;17.97;;;;;;;0.81;65.85;94730.88;5090579;28;20197;-76
2021/12/24 08:28:49;;;;;;;39.87;18.50;;;;;;;0.95;65.95;94722.56;5095522;28;20339;-76
2021/12/24 08:31:19;;;;;;;35.97;17.93;;;;;;;0.98;65.67;94707.69;5087076;28;20233;-76
2021/12/24 08:33:48;;;;;;;33.80;17.87;;;;;;;1.06;65.58;94709.47;5087732;28;20205;-77
2021/12/24 08:36:16;;;;;;;40.90;18.03;;;;;;;0.98;66.20;94705.13;5087146;28;20331;-77
2021/12/24 08:38:45;;;;;;;33.43;17.33;;;;;;;1.05;64.92;94695.88;5096653;28;20653;-77
2021/12/24 08:41:14;;;;;;;34.97;18.13;;;;;;;1.11;65.32;94690.13;5091291;28;20200;-77
2021/12/24 08:43:42;;;;;;;39.67;18.07;;;;;;;1.20;65.01;94692.69;5092593;28;20284;-77
2021/12/24 08:46:13;;;;;;;34.63;17.33;;;;;;;1.19;64.88;94681.66;5092614;28;20203;-75
2021/12/24 08:48:45;;;;;;;38.63;17.10;;;;;;;1.24;65.32;94693.97;5090504;28;20202;-75
2021/12/24 08:51:56;;;;;;;35.73;17.90;;;;;;;1.30;64.84;94703.56;5090431;28;20205;-76
2021/12/24 08:54:26;;;;;;;35.03;18.73;;;;;;;1.35;65.23;94707.25;5089476;28;20215;-78
2021/12/24 08:56:55;;;;;;;41.63;19.80;;;;;;;1.38;64.54;94701.00;5085594;28;20364;-79
2021/12/24 08:59:25;;;;;;;37.23;19.30;;;;;;;1.08;66.19;94710.91;5090619;28;20196;-76
2021/12/24 09:01:53;;;;;;;37.73;19.50;;;;;;;0.99;67.02;94704.19;5089490;28;20629;-75
2021/12/24 09:04:22;;;;;;;36.53;18.47;;;;;;;1.11;67.07;94697.00;5091132;28;20209;-75
2021/12/24 09:06:51;;;;;;;41.47;18.90;;;;;;;1.29;66.98;94694.28;5096299;28;20247;-76
2021/12/24 09:09:20;;;;;;;35.63;17.70;;;;;;;1.37;66.03;94663.56;5085563;28;20969;-77
2021/12/24 09:11:47;;;;;;;37.77;17.97;;;;;;;1.61;64.76;94696.81;5096925;28;20652;-74
2021/12/24 09:14:18;;;;;;;37.17;19.33;;;;;;;1.69;65.08;94684.81;5090982;28;20262;-75
2021/12/24 09:16:49;;;;;;;43.13;18.50;;;;;;;1.86;64.33;94695.81;5092700;28;20264;-76
2021/12/24 09:19:22;;;;;;;36.00;17.97;;;;;;;2.00;64.88;94676.38;5090207;28;20193;-75
2021/12/24 09:21:51;;;;;;;40.93;19.70;;;;;;;2.03;64.38;94682.00;5091023;28;20201;-75
2021/12/24 09:24:21;;;;;;;34.97;19.00;;;;;;;2.22;63.44;94681.59;5086975;28;20209;-74
2021/12/24 09:26:49;;;;;;;34.40;19.03;;;;;;;2.28;63.25;94680.94;5089674;28;20195;-75
2021/12/24 09:29:17;;;;;;;41.73;19.63;;;;;;;2.34;62.89;94673.56;5087453;28;20193;-74
2021/12/24 09:31:45;;;;;;;39.93;19.97;;;;;;;2.43;62.17;94663.06;5090383;28;20204;-76
2021/12/24 09:34:13;;;;;;;45.27;21.43;;;;;;;2.47;62.70;94679.75;5090336;28;20211;-75
2021/12/24 09:36:42;;;;;;;43.20;21.27;;;;;;;2.48;62.47;94657.47;5093097;28;20653;-75
2021/12/24 09:39:14;;;;;;;39.50;20.03;;;;;;;2.57;62.75;94648.75;5090242;28;20250;-74
2021/12/24 09:41:42;;;;;;;40.20;20.60;;;;;;;2.60;63.48;94646.63;5092997;28;20222;-76
2021/12/24 09:44:11;;;;;;;39.60;21.67;;;;;;;2.66;62.13;94640.81;5092548;28;20204;-76
2021/12/24 09:46:42;;;;;;;42.53;22.40;;;;;;;2.76;62.33;94643.19;5089004;28;20200;-77
2021/12/24 09:49:11;;;;;;;40.73;22.23;;;;;;;2.89;62.02;94645.19;5089031;28;20208;-75
2021/12/24 09:51:41;;;;;;;43.53;21.10;;;;;;;2.92;61.68;94650.75;5087839;28;20208;-76
2021/12/24 09:54:14;;;;;;;41.03;21.67;;;;;;;2.94;61.64;94656.53;5092178;28;20383;-75
2021/12/24 09:56:43;;;;;;;43.70;21.30;;;;;;;3.19;60.89;94639.97;5089185;28;20304;-75
2021/12/24 09:59:11;;;;;;;41.80;21.73;;;;;;;4.34;57.03;94630.88;5087412;28;20582;-75
2021/12/24 10:01:42;;;;;;;42.77;21.13;;;;;;;5.50;53.71;94614.19;5087843;28;20201;-73
2021/12/24 10:04:13;;;;;;;42.57;21.63;;;;;;;7.39;49.85;94617.63;5088227;28;20246;-74
2021/12/24 10:06:52;;;;;;;40.73;20.73;;;;;;;9.91;43.20;94625.66;5087338;28;20221;-75
2021/12/24 10:09:23;;;;;;;37.10;20.60;;;;;;;10.73;40.69;94614.81;5090364;28;20191;-74
2021/12/24 10:11:54;;;;;;;51.23;21.30;;;;;;;10.68;39.85;94622.44;5087258;28;20256;-79
2021/12/24 10:14:29;;;;;;;36.03;20.20;;;;;;;10.57;40.41;94620.56;5084832;28;20196;-75
2021/12/24 10:16:57;;;;;;;39.63;21.23;;;;;;;10.66;39.64;94601.06;5087003;28;20691;-75
2021/12/24 10:19:25;;;;;;;37.03;21.30;;;;;;;11.47;38.62;94622.16;5086746;28;20196;-74
2021/12/24 10:21:59;;;;;;;37.67;19.93;;;;;;;12.19;37.57;94610.53;5089140;28;20201;-74
2021/12/24 10:24:29;;;;;;;44.63;20.50;;;;;;;12.87;36.28;94604.59;5087844;28;20197;-72
2021/12/24 10:27:00;;;;;;;37.20;20.53;;;;;;;13.30;35.28;94596.25;5085729;28;20303;-74
2021/12/24 10:29:32;;;;;;;38.13;21.33;;;;;;;13.48;34.91;94601.22;5087263;28;20261;-74
2021/12/24 10:32:07;;;;;;;33.03;20.30;;;;;;;13.74;34.56;94579.69;5087791;28;20211;-73
2021/12/24 10:34:36;;;;;;;39.67;21.20;;;;;;;13.99;34.07;94580.09;5089925;28;20208;-73
2021/12/24 10:37:10;;;;;;;46.20;21.67;;;;;;;14.15;34.02;94596.75;5088044;28;20307;-74
2021/12/24 10:39:42;;;;;;;36.13;19.40;;;;;;;14.39;33.19;94566.78;5090869;28;20302;-73
2021/12/24 10:42:13;;;;;;;24.67;15.17;;;;;;;14.68;33.65;94556.91;5087948;28;20258;-74
2021/12/24 10:44:43;;;;;;;31.83;18.73;;;;;;;15.42;32.44;94580.66;5086528;28;20646;-75
2021/12/24 10:47:13;;;;;;;33.37;19.60;;;;;;;16.58;30.75;94573.56;5089981;28;20205;-75
2021/12/24 10:50:09;;;;;;;25.53;15.83;;;;;;;17.97;28.78;94574.06;5089039;28;20538;-75
2021/12/24 10:55:31;;;;;;;33.70;17.93;;;;;;;14.87;32.38;94563.38;5087595;28;20306;-74
2021/12/24 10:58:01;;;;;;;26.93;15.77;;;;;;;15.47;32.06;94544.06;5088875;28;20795;-74
2021/12/24 11:00:31;;;;;;;29.10;16.03;;;;;;;16.31;31.17;94550.88;5088049;28;20208;-76
2021/12/24 11:03:01;;;;;;;34.57;18.50;;;;;;;17.57;29.56;94539.91;5087590;28;20200;-74
2021/12/24 11:05:32;;;;;;;28.37;15.53;;;;;;;16.90;30.34;94538.25;5085767;28;20312;-75
2021/12/24 11:08:01;;;;;;;21.83;14.83;;;;;;;16.81;30.96;94533.75;5087678;28;21129;-76
2021/12/24 11:10:32;;;;;;;24.87;13.80;;;;;;;15.26;33.28;94527.38;5086763;28;20200;-74
2021/12/24 11:13:07;;;;;;;18.77;11.40;;;;;;;14.45;34.56;94521.34;5089193;28;20204;-75
2021/12/24 11:15:38;;;;;;;20.87;11.77;;;;;;;15.37;34.11;94526.41;5089874;28;20204;-74
2021/12/24 11:18:09;;;;;;;20.70;11.20;;;;;;;15.88;32.76;94522.31;5084152;28;20626;-73
2021/12/24 11:20:37;;;;;;;9.67;5.30;;;;;;;15.92;33.82;94520.78;5089783;28;20199;-75
2021/12/24 11:23:07;;;;;;;8.87;3.40;;;;;;;16.09;33.55;94512.75;5087587;28;20200;-73
2021/12/24 11:25:39;;;;;;;11.30;2.97;;;;;;;16.40;32.83;94522.31;5086686;28;20225;-75
2021/12/24 11:28:08;;;;;;;5.97;3.57;;;;;;;17.13;32.23;94508.09;5086586;28;20920;-74
2021/12/24 11:30:38;;;;;;;6.33;4.13;;;;;;;16.84;32.57;94497.28;5088011;28;20204;-75
2021/12/24 11:33:06;;;;;;;4.57;3.43;;;;;;;17.04;32.31;94501.75;5087250;28;20222;-76
2021/12/24 11:35:33;;;;;;;7.70;3.60;;;;;;;16.82;32.24;94509.88;5088859;28;20195;-74
2021/12/24 11:38:02;;;;;;;13.47;6.20;;;;;;;16.98;32.28;94498.34;5089515;28;20212;-75
2021/12/24 11:40:31;;;;;;;13.10;7.10;;;;;;;17.53;31.48;94508.06;5086034;28;20208;-75
2021/12/24 11:43:03;;;;;;;6.67;4.37;;;;;;;17.58;31.20;94512.56;5084803;28;20291;-75
2021/12/24 11:45:33;;;;;;;5.20;3.63;;;;;;;17.34;31.54;94519.38;5088853;28;20189;-73
2021/12/24 11:48:02;;;;;;;7.23;4.70;;;;;;;16.76;32.31;94523.25;5084717;28;20759;-74
2021/12/24 11:50:30;;;;;;;7.50;4.13;;;;;;;16.59;32.81;94509.56;5088505;28;20193;-75
2021/12/24 11:53:02;;;;;;;15.60;7.17;;;;;;;17.18;31.91;94513.34;5084774;28;20694;-74
2021/12/24 11:55:37;;;;;;;8.37;5.23;;;;;;;17.38;31.56;94510.72;5087303;28;20192;-74
2021/12/24 11:58:08;;;;;;;12.90;8.13;;;;;;;17.70;31.31;94507.81;5085441;28;20287;-75
2021/12/24 12:00:40;;;;;;;12.07;7.90;;;;;;;17.33;31.27;94499.41;5087512;28;20200;-74
2021/12/24 12:03:08;;;;;;;9.70;6.33;;;;;;;17.23;31.53;94486.28;5088006;28;20690;-80
2021/12/24 12:05:38;;;;;;;10.33;5.63;;;;;;;17.74;31.01;94497.56;5100989;28;20270;-81
2021/12/24 12:08:36;;;;;;;5.90;3.97;;;;;;;17.73;30.90;94503.88;5101118;28;20232;-81
2021/12/24 12:11:09;;;;;;;12.97;4.10;;;;;;;17.80;30.94;94507.81;5094985;28;20675;-83
2021/12/24 12:13:48;;;;;;;5.60;3.90;;;;;;;17.79;30.78;94506.22;5101380;28;20204;-76
2021/12/24 12:16:18;;;;;;;6.33;3.47;;;;;;;17.57;31.40;94506.50;5095772;28;20212;-76
2021/12/24 12:19:00;;;;;;;7.37;4.40;;;;;;;17.39;31.39;94493.91;5098697;28;20325;-75
2021/12/24 12:21:37;;;;;;;9.03;5.20;;;;;;;17.23;31.39;94508.06;5090581;28;20690;-76
2021/12/24 12:27:00;;;;;;;9.13;5.40;;;;;;;16.64;32.71;94488.56;5089258;28;20241;-76
2021/12/24 12:29:42;;;;;;;8.77;3.47;;;;;;;16.46;32.79;94482.72;5091607;28;20203;-74
2021/12/24 12:32:40;;;;;;;7.33;4.50;;;;;;;16.78;32.43;94479.94;5088978;28;20199;-73
2021/12/24 12:35:09;;;;;;;15.20;7.97;;;;;;;16.84;32.46;94471.03;5092512;28;20287;-73
2021/12/24 12:37:50;;;;;;;9.07;4.83;;;;;;;16.94;32.17;94476.28;5090969;28;20303;-74
2021/12/24 12:40:36;;;;;;;10.33;5.37;;;;;;;17.20;31.88;94458.69;5085613;28;20201;-74
2021/12/24 12:43:15;;;;;;;13.77;6.70;;;;;;;17.32;31.54;94461.03;5089262;28;20197;-74
2021/12/24 12:46:02;;;;;;;12.97;7.67;;;;;;;17.16;31.79;94460.28;5091189;28;20204;-73
2021/12/24 12:48:53;;;;;;;10.87;5.23;;;;;;;16.44;32.56;94442.84;5088488;28;20193;-73
2021/12/24 12:51:37;;;;;;;7.37;3.70;;;;;;;15.97;33.52;94449.22;5086506;28;20235;-73
2021/12/24 12:54:30;;;;;;;11.53;5.77;;;;;;;15.81;33.78;94443.16;5089928;28;20220;-74
2021/12/24 12:57:18;;;;;;;10.23;6.27;;;;;;;15.55;34.40;94451.91;5087372;28;21219;-74